This is the latest recevied weather packets stored in our database for station/object LA9UTA-13. If no packets are shown the sender has not sent any weather packets the latest 10 day(s).
| Time | Temp. | Humidity | Pressure | Rain* | Wind** | Luminosity | Snow |
|---|---|---|---|---|---|---|---|
| 1788199808 | 15° C | 78% | 1005.7 hPa | 0 mm | - | 9 W/m² | - |
| 1788198609 | 16.11° C | 77% | 1005.7 hPa | 0 mm | - | 20 W/m² | - |
| 1788196210 | 17.22° C | 74% | 1005.5 hPa | 0 mm | - | 48 W/m² | - |
| 1788195009 | 18.33° C | 70% | 1004.4 hPa | 0 mm | - | 68 W/m² | - |
| 1788193809 | 20° C | 64% | 1004.2 hPa | 0 mm | - | 80 W/m² | - |
| 1788192610 | 21.67° C | 56% | 1004.1 hPa | 0 mm | - | 103 W/m² | - |
| 1788191409 | 22.22° C | 54% | 1004 hPa | 0 mm | - | 133 W/m² | - |
| 1788190209 | 22.78° C | 53% | 1004 hPa | 0 mm | - | 168 W/m² | - |
| 1788189009 | 21.11° C | 57% | 1004.1 hPa | 0 mm | - | 209 W/m² | - |
| 1788186609 | 21.11° C | 57% | 1004.1 hPa | 0 mm | - | 326 W/m² | - |
| 1788185409 | 21.11° C | 59% | 1004.1 hPa | 0 mm | - | 375 W/m² | - |
| 1788183009 | 21.11° C | 60% | 1004.1 hPa | 0 mm | - | 134 W/m² | - |
| 1788181809 | 19.44° C | 61% | 1003.2 hPa | 0 mm | - | 100 W/m² | - |
| 1788180609 | 20° C | 65% | 1004.2 hPa | 0 mm | - | 150 W/m² | - |
| 1788178209 | 18.33° C | 67% | 1004.4 hPa | 0 mm | - | 150 W/m² | - |
| 1788177009 | 19.44° C | 64% | 1004.3 hPa | 0 mm | - | 534 W/m² | - |
| 1788175809 | 17.78° C | 71% | 1003.4 hPa | 0 mm | - | 130 W/m² | - |
| 1788174609 | 17.78° C | 73% | 1003.4 hPa | 0 mm | - | 117 W/m² | - |
| 1788172209 | 18.33° C | 71% | 1003.3 hPa | 0 mm | - | 191 W/m² | - |
| 1788171009 | 19.44° C | 66% | 1003.2 hPa | 0 mm | - | 188 W/m² | - |
| 1788169809 | 21.11° C | 61% | 1003.1 hPa | 0 mm | - | 544 W/m² | - |
| 1788167409 | 17.78° C | 72% | 1003.3 hPa | 0 mm | - | 155 W/m² | - |
| 1788166209 | 18.33° C | 71% | 1003.3 hPa | 0 mm | - | 456 W/m² | - |
| 1788165010 | 20° C | 66% | 1003.2 hPa | 0 mm | - | 332 W/m² | - |
| 1788163809 | 16.67° C | 77% | 1003.5 hPa | 0 mm | - | 341 W/m² | - |
* Rain latest hour (hover to see other rain measurements)
** Current wind speed in m/s (hover to see current wind gust speed)